aviador You're here:

LFJL Decoded Metar

METZ in FRANCE
Report Time2018-02-20 13:30:00
UTC Time2018-02-20 13:53:18
Flight Rules vfr VFR
Wind070° at 06 kt
W.Decomp.*RWY 04: 5.2 kt HW 3.0 kt RCW
W.Rank070° ranks 14
Current wind is below 070° avg. (7.1)
Visibility9999 m
Phenomena:N/A
Clouds:Few 031 Hf
Overcast 160 Hf
Expected CloudBase > 2,800 ft AGL from Temp-Dew spread
Ceiling16,000 ft
Temp03°C (ISA -10)
Dew Point-4°C (60% RH)
AAT-1.7°C
QNH1015 hPa
Density Alt-381 ft
Elevation866 ft
Report Wrong Elevation
Raw Report
LFJL 201330Z AUTO 07006KT 030V110 9999 FEW031 OVC160 03/M04 Q1015
NOSIG=

Extra information for LFJL:More info

Metar Taf Metar & Taf Last 4 Metars F.Rules Stats Wind Profile Meteogram Temp Stats Airport Information Weather charts Add Link Nearby VenuesMetar ALERT Operation Metar Decoded Social comments